sensor_id;sensor_type;location;lat;lon;timestamp;P1;durP1;ratioP1;P2;durP2;ratioP2
1224;SDS011;602;48.000;7.840;2022-11-14T00:00:22;3.37;;;1.50;;
1224;SDS011;602;48.000;7.840;2022-11-14T00:02:49;1.77;;;1.50;;
1224;SDS011;602;48.000;7.840;2022-11-14T00:05:16;2.00;;;1.47;;
1224;SDS011;602;48.000;7.840;2022-11-14T00:07:43;6.87;;;3.20;;
1224;SDS011;602;48.000;7.840;2022-11-14T00:10:11;2.10;;;1.70;;
1224;SDS011;602;48.000;7.840;2022-11-14T00:12:39;4.50;;;2.43;;
1224;SDS011;602;48.000;7.840;2022-11-14T00:15:06;2.87;;;2.10;;
1224;SDS011;602;48.000;7.840;2022-11-14T00:17:34;2.13;;;1.93;;
1224;SDS011;602;48.000;7.840;2022-11-14T00:20:01;3.83;;;1.73;;
1224;SDS011;602;48.000;7.840;2022-11-14T00:22:29;1.77;;;1.67;;
1224;SDS011;602;48.000;7.840;2022-11-14T00:24:56;2.00;;;0.80;;
1224;SDS011;602;48.000;7.840;2022-11-14T00:27:23;1.30;;;1.23;;
1224;SDS011;602;48.000;7.840;2022-11-14T00:29:51;3.30;;;1.63;;
1224;SDS011;602;48.000;7.840;2022-11-14T00:32:18;2.83;;;2.23;;
1224;SDS011;602;48.000;7.840;2022-11-14T00:34:46;3.67;;;2.80;;
1224;SDS011;602;48.000;7.840;2022-11-14T00:37:13;1.10;;;0.87;;
1224;SDS011;602;48.000;7.840;2022-11-14T00:39:40;3.50;;;0.93;;
1224;SDS011;602;48.000;7.840;2022-11-14T00:42:07;4.67;;;1.80;;
1224;SDS011;602;48.000;7.840;2022-11-14T00:44:34;2.00;;;1.87;;
1224;SDS011;602;48.000;7.840;2022-11-14T00:47:02;1.70;;;1.60;;
1224;SDS011;602;48.000;7.840;2022-11-14T00:49:29;5.50;;;1.97;;
1224;SDS011;602;48.000;7.840;2022-11-14T00:51:55;3.90;;;2.23;;
1224;SDS011;602;48.000;7.840;2022-11-14T00:54:22;2.17;;;2.00;;
1224;SDS011;602;48.000;7.840;2022-11-14T00:56:50;5.40;;;2.50;;
1224;SDS011;602;48.000;7.840;2022-11-14T00:59:17;2.00;;;1.63;;
1224;SDS011;602;48.000;7.840;2022-11-14T01:01:44;1.80;;;1.47;;
1224;SDS011;602;48.000;7.840;2022-11-14T01:04:12;1.50;;;1.40;;
1224;SDS011;602;48.000;7.840;2022-11-14T01:06:39;4.37;;;1.37;;
1224;SDS011;602;48.000;7.840;2022-11-14T01:09:06;2.37;;;2.03;;
1224;SDS011;602;48.000;7.840;2022-11-14T01:11:33;1.33;;;0.97;;
1224;SDS011;602;48.000;7.840;2022-11-14T01:13:59;1.40;;;1.30;;
1224;SDS011;602;48.000;7.840;2022-11-14T01:16:26;1.60;;;1.50;;
1224;SDS011;602;48.000;7.840;2022-11-14T01:18:53;1.80;;;1.67;;
1224;SDS011;602;48.000;7.840;2022-11-14T01:21:21;0.60;;;0.60;;
1224;SDS011;602;48.000;7.840;2022-11-14T01:23:48;1.10;;;1.00;;
1224;SDS011;602;48.000;7.840;2022-11-14T01:26:15;0.90;;;0.90;;
1224;SDS011;602;48.000;7.840;2022-11-14T01:28:42;1.37;;;0.97;;
1224;SDS011;602;48.000;7.840;2022-11-14T01:31:09;0.70;;;0.70;;
1224;SDS011;602;48.000;7.840;2022-11-14T01:33:38;1.83;;;1.17;;
1224;SDS011;602;48.000;7.840;2022-11-14T01:36:05;2.50;;;2.03;;
1224;SDS011;602;48.000;7.840;2022-11-14T01:38:34;12.70;;;1.90;;
1224;SDS011;602;48.000;7.840;2022-11-14T01:41:01;1.80;;;1.60;;
1224;SDS011;602;48.000;7.840;2022-11-14T01:43:29;3.73;;;2.60;;
1224;SDS011;602;48.000;7.840;2022-11-14T01:45:59;0.93;;;0.90;;
1224;SDS011;602;48.000;7.840;2022-11-14T01:48:29;1.27;;;0.90;;
1224;SDS011;602;48.000;7.840;2022-11-14T01:51:02;3.87;;;2.53;;
1224;SDS011;602;48.000;7.840;2022-11-14T01:53:39;1.93;;;1.57;;
1224;SDS011;602;48.000;7.840;2022-11-14T01:56:06;1.43;;;1.33;;
1224;SDS011;602;48.000;7.840;2022-11-14T01:58:36;1.93;;;1.70;;
1224;SDS011;602;48.000;7.840;2022-11-14T02:01:07;2.03;;;1.87;;
1224;SDS011;602;48.000;7.840;2022-11-14T02:03:34;1.63;;;1.30;;
1224;SDS011;602;48.000;7.840;2022-11-14T02:06:05;0.87;;;0.87;;
1224;SDS011;602;48.000;7.840;2022-11-14T02:08:34;2.93;;;1.63;;
1224;SDS011;602;48.000;7.840;2022-11-14T02:11:03;2.67;;;1.53;;
1224;SDS011;602;48.000;7.840;2022-11-14T02:13:30;1.30;;;0.70;;
1224;SDS011;602;48.000;7.840;2022-11-14T02:15:57;1.40;;;1.30;;
1224;SDS011;602;48.000;7.840;2022-11-14T02:18:24;2.63;;;1.40;;
1224;SDS011;602;48.000;7.840;2022-11-14T02:20:52;1.07;;;1.00;;
1224;SDS011;602;48.000;7.840;2022-11-14T02:23:26;2.00;;;1.90;;
1224;SDS011;602;48.000;7.840;2022-11-14T02:25:53;1.20;;;1.00;;
1224;SDS011;602;48.000;7.840;2022-11-14T02:28:21;2.10;;;1.20;;
1224;SDS011;602;48.000;7.840;2022-11-14T02:30:48;0.80;;;0.80;;
1224;SDS011;602;48.000;7.840;2022-11-14T02:33:15;2.23;;;1.00;;
1224;SDS011;602;48.000;7.840;2022-11-14T02:35:42;1.43;;;1.33;;
1224;SDS011;602;48.000;7.840;2022-11-14T02:38:10;0.63;;;0.63;;
1224;SDS011;602;48.000;7.840;2022-11-14T02:40:37;2.63;;;1.23;;
1224;SDS011;602;48.000;7.840;2022-11-14T02:43:04;1.03;;;0.93;;
1224;SDS011;602;48.000;7.840;2022-11-14T02:45:31;1.90;;;1.50;;
1224;SDS011;602;48.000;7.840;2022-11-14T02:47:58;2.00;;;0.90;;
1224;SDS011;602;48.000;7.840;2022-11-14T02:50:24;1.83;;;1.20;;
1224;SDS011;602;48.000;7.840;2022-11-14T02:52:51;1.20;;;1.10;;
1224;SDS011;602;48.000;7.840;2022-11-14T02:55:20;1.17;;;1.03;;
1224;SDS011;602;48.000;7.840;2022-11-14T02:57:47;2.00;;;1.63;;
1224;SDS011;602;48.000;7.840;2022-11-14T03:00:14;1.17;;;0.97;;
1224;SDS011;602;48.000;7.840;2022-11-14T03:02:42;1.53;;;0.70;;
1224;SDS011;602;48.000;7.840;2022-11-14T03:05:08;2.00;;;1.47;;
1224;SDS011;602;48.000;7.840;2022-11-14T03:07:36;2.33;;;1.20;;
1224;SDS011;602;48.000;7.840;2022-11-14T03:10:03;0.83;;;0.83;;
1224;SDS011;602;48.000;7.840;2022-11-14T03:12:33;1.63;;;1.20;;
1224;SDS011;602;48.000;7.840;2022-11-14T03:15:00;1.77;;;0.60;;
1224;SDS011;602;48.000;7.840;2022-11-14T03:17:29;1.07;;;0.93;;
1224;SDS011;602;48.000;7.840;2022-11-14T03:19:56;4.83;;;1.57;;
1224;SDS011;602;48.000;7.840;2022-11-14T03:22:23;1.20;;;1.13;;
1224;SDS011;602;48.000;7.840;2022-11-14T03:24:50;1.63;;;1.53;;
1224;SDS011;602;48.000;7.840;2022-11-14T03:27:17;0.70;;;0.70;;
1224;SDS011;602;48.000;7.840;2022-11-14T03:29:46;1.50;;;1.40;;
1224;SDS011;602;48.000;7.840;2022-11-14T03:32:13;1.33;;;0.97;;
1224;SDS011;602;48.000;7.840;2022-11-14T03:34:40;1.60;;;1.50;;
1224;SDS011;602;48.000;7.840;2022-11-14T03:37:07;0.90;;;0.90;;
1224;SDS011;602;48.000;7.840;2022-11-14T03:39:34;0.63;;;0.63;;
1224;SDS011;602;48.000;7.840;2022-11-14T03:42:01;0.77;;;0.77;;
1224;SDS011;602;48.000;7.840;2022-11-14T03:44:28;0.60;;;0.60;;
1224;SDS011;602;48.000;7.840;2022-11-14T03:46:56;0.60;;;0.60;;
1224;SDS011;602;48.000;7.840;2022-11-14T03:49:23;0.73;;;0.73;;
1224;SDS011;602;48.000;7.840;2022-11-14T03:51:50;3.23;;;1.10;;
1224;SDS011;602;48.000;7.840;2022-11-14T03:54:17;2.10;;;1.03;;
1224;SDS011;602;48.000;7.840;2022-11-14T03:56:43;2.10;;;1.13;;
1224;SDS011;602;48.000;7.840;2022-11-14T03:59:10;1.73;;;1.27;;
1224;SDS011;602;48.000;7.840;2022-11-14T04:01:37;1.33;;;1.23;;
1224;SDS011;602;48.000;7.840;2022-11-14T04:04:05;1.03;;;1.03;;
1224;SDS011;602;48.000;7.840;2022-11-14T04:06:32;1.23;;;1.10;;
1224;SDS011;602;48.000;7.840;2022-11-14T04:08:59;1.27;;;0.90;;
1224;SDS011;602;48.000;7.840;2022-11-14T04:11:25;1.30;;;1.20;;
1224;SDS011;602;48.000;7.840;2022-11-14T04:13:52;1.30;;;1.20;;
1224;SDS011;602;48.000;7.840;2022-11-14T04:16:19;1.37;;;1.03;;
1224;SDS011;602;48.000;7.840;2022-11-14T04:18:46;1.47;;;1.40;;
1224;SDS011;602;48.000;7.840;2022-11-14T04:21:14;7.13;;;2.10;;
1224;SDS011;602;48.000;7.840;2022-11-14T04:23:41;0.80;;;0.80;;
1224;SDS011;602;48.000;7.840;2022-11-14T04:26:08;1.23;;;1.00;;
1224;SDS011;602;48.000;7.840;2022-11-14T04:28:34;1.67;;;1.57;;
1224;SDS011;602;48.000;7.840;2022-11-14T04:31:01;1.33;;;1.23;;
1224;SDS011;602;48.000;7.840;2022-11-14T04:33:28;0.60;;;0.60;;
1224;SDS011;602;48.000;7.840;2022-11-14T04:35:55;1.00;;;0.97;;
1224;SDS011;602;48.000;7.840;2022-11-14T04:38:23;1.40;;;1.00;;
1224;SDS011;602;48.000;7.840;2022-11-14T04:40:50;1.70;;;1.37;;
1224;SDS011;602;48.000;7.840;2022-11-14T04:43:18;1.53;;;1.00;;
1224;SDS011;602;48.000;7.840;2022-11-14T04:45:46;2.10;;;1.33;;
1224;SDS011;602;48.000;7.840;2022-11-14T04:48:13;1.40;;;0.97;;
1224;SDS011;602;48.000;7.840;2022-11-14T04:50:40;1.27;;;1.17;;
1224;SDS011;602;48.000;7.840;2022-11-14T04:53:07;1.00;;;0.87;;
1224;SDS011;602;48.000;7.840;2022-11-14T04:55:35;5.20;;;2.03;;
1224;SDS011;602;48.000;7.840;2022-11-14T04:58:02;1.63;;;1.53;;
1224;SDS011;602;48.000;7.840;2022-11-14T05:00:28;2.47;;;1.30;;
1224;SDS011;602;48.000;7.840;2022-11-14T05:02:57;2.50;;;1.43;;
1224;SDS011;602;48.000;7.840;2022-11-14T05:05:24;4.00;;;1.77;;
1224;SDS011;602;48.000;7.840;2022-11-14T05:07:51;1.43;;;1.07;;
1224;SDS011;602;48.000;7.840;2022-11-14T05:10:19;0.53;;;0.53;;
1224;SDS011;602;48.000;7.840;2022-11-14T05:12:47;3.60;;;1.70;;
1224;SDS011;602;48.000;7.840;2022-11-14T05:15:14;1.43;;;1.03;;
1224;SDS011;602;48.000;7.840;2022-11-14T05:17:41;0.90;;;0.90;;
1224;SDS011;602;48.000;7.840;2022-11-14T05:20:08;0.80;;;0.80;;
1224;SDS011;602;48.000;7.840;2022-11-14T05:22:36;0.80;;;0.80;;
1224;SDS011;602;48.000;7.840;2022-11-14T05:25:03;1.03;;;1.03;;
1224;SDS011;602;48.000;7.840;2022-11-14T05:27:30;1.40;;;1.27;;
1224;SDS011;602;48.000;7.840;2022-11-14T05:29:58;0.80;;;0.70;;
1224;SDS011;602;48.000;7.840;2022-11-14T05:32:25;1.17;;;0.90;;
1224;SDS011;602;48.000;7.840;2022-11-14T05:34:52;0.57;;;0.57;;
1224;SDS011;602;48.000;7.840;2022-11-14T05:37:18;1.13;;;0.80;;
1224;SDS011;602;48.000;7.840;2022-11-14T05:39:45;0.80;;;0.80;;
1224;SDS011;602;48.000;7.840;2022-11-14T05:42:12;0.60;;;0.60;;
1224;SDS011;602;48.000;7.840;2022-11-14T05:44:39;0.50;;;0.50;;
1224;SDS011;602;48.000;7.840;2022-11-14T05:47:07;0.60;;;0.60;;
1224;SDS011;602;48.000;7.840;2022-11-14T05:49:34;0.93;;;0.83;;
1224;SDS011;602;48.000;7.840;2022-11-14T05:52:01;1.03;;;0.87;;
1224;SDS011;602;48.000;7.840;2022-11-14T05:54:27;7.03;;;1.43;;
1224;SDS011;602;48.000;7.840;2022-11-14T05:56:54;1.13;;;1.03;;
1224;SDS011;602;48.000;7.840;2022-11-14T05:59:21;1.93;;;1.80;;
1224;SDS011;602;48.000;7.840;2022-11-14T06:01:48;1.00;;;1.00;;
1224;SDS011;602;48.000;7.840;2022-11-14T06:04:16;0.83;;;0.83;;
1224;SDS011;602;48.000;7.840;2022-11-14T06:06:43;0.73;;;0.73;;
1224;SDS011;602;48.000;7.840;2022-11-14T06:09:10;2.10;;;1.23;;
1224;SDS011;602;48.000;7.840;2022-11-14T06:11:37;0.77;;;0.77;;
1224;SDS011;602;48.000;7.840;2022-11-14T06:14:03;1.00;;;1.00;;
1224;SDS011;602;48.000;7.840;2022-11-14T06:16:30;1.10;;;1.07;;
1224;SDS011;602;48.000;7.840;2022-11-14T06:18:57;1.03;;;1.03;;
1224;SDS011;602;48.000;7.840;2022-11-14T06:21:25;0.90;;;0.90;;
1224;SDS011;602;48.000;7.840;2022-11-14T06:23:52;1.33;;;1.00;;
1224;SDS011;602;48.000;7.840;2022-11-14T06:26:20;1.00;;;1.00;;
1224;SDS011;602;48.000;7.840;2022-11-14T06:28:48;1.50;;;1.03;;
1224;SDS011;602;48.000;7.840;2022-11-14T06:31:16;0.90;;;0.90;;
1224;SDS011;602;48.000;7.840;2022-11-14T06:33:43;2.60;;;1.83;;
1224;SDS011;602;48.000;7.840;2022-11-14T06:36:10;2.37;;;1.40;;
1224;SDS011;602;48.000;7.840;2022-11-14T06:38:39;2.47;;;1.40;;
1224;SDS011;602;48.000;7.840;2022-11-14T06:41:07;1.70;;;1.37;;
1224;SDS011;602;48.000;7.840;2022-11-14T06:43:35;2.17;;;1.80;;
1224;SDS011;602;48.000;7.840;2022-11-14T06:46:04;1.97;;;1.87;;
1224;SDS011;602;48.000;7.840;2022-11-14T06:48:31;1.70;;;1.60;;
1224;SDS011;602;48.000;7.840;2022-11-14T06:50:59;1.40;;;1.30;;
1224;SDS011;602;48.000;7.840;2022-11-14T06:53:27;2.77;;;1.40;;
1224;SDS011;602;48.000;7.840;2022-11-14T06:55:57;1.90;;;1.80;;
1224;SDS011;602;48.000;7.840;2022-11-14T06:58:25;1.53;;;1.43;;
1224;SDS011;602;48.000;7.840;2022-11-14T07:00:53;1.50;;;1.40;;
1224;SDS011;602;48.000;7.840;2022-11-14T07:03:20;1.37;;;1.10;;
1224;SDS011;602;48.000;7.840;2022-11-14T07:05:47;1.27;;;0.80;;
1224;SDS011;602;48.000;7.840;2022-11-14T07:08:14;1.10;;;1.10;;
1224;SDS011;602;48.000;7.840;2022-11-14T07:10:41;2.90;;;1.63;;
1224;SDS011;602;48.000;7.840;2022-11-14T07:13:09;3.47;;;2.43;;
1224;SDS011;602;48.000;7.840;2022-11-14T07:15:36;1.17;;;1.07;;
1224;SDS011;602;48.000;7.840;2022-11-14T07:18:03;2.03;;;1.80;;
1224;SDS011;602;48.000;7.840;2022-11-14T07:20:30;4.70;;;2.23;;
1224;SDS011;602;48.000;7.840;2022-11-14T07:22:57;1.83;;;1.60;;
1224;SDS011;602;48.000;7.840;2022-11-14T07:25:24;2.90;;;1.50;;
1224;SDS011;602;48.000;7.840;2022-11-14T07:27:51;2.80;;;2.13;;
1224;SDS011;602;48.000;7.840;2022-11-14T07:30:19;2.60;;;2.40;;
1224;SDS011;602;48.000;7.840;2022-11-14T07:32:46;3.50;;;1.87;;
1224;SDS011;602;48.000;7.840;2022-11-14T07:35:19;2.60;;;1.90;;
1224;SDS011;602;48.000;7.840;2022-11-14T07:37:46;1.47;;;1.37;;
1224;SDS011;602;48.000;7.840;2022-11-14T07:40:13;2.57;;;2.37;;
1224;SDS011;602;48.000;7.840;2022-11-14T07:42:40;1.93;;;1.83;;
1224;SDS011;602;48.000;7.840;2022-11-14T07:45:08;1.67;;;1.57;;
1224;SDS011;602;48.000;7.840;2022-11-14T07:47:37;1.53;;;1.40;;
1224;SDS011;602;48.000;7.840;2022-11-14T07:50:04;1.17;;;1.07;;
1224;SDS011;602;48.000;7.840;2022-11-14T07:52:31;1.73;;;1.63;;
1224;SDS011;602;48.000;7.840;2022-11-14T07:54:58;2.27;;;1.17;;
1224;SDS011;602;48.000;7.840;2022-11-14T07:57:24;1.37;;;1.27;;
1224;SDS011;602;48.000;7.840;2022-11-14T07:59:51;5.80;;;2.10;;
1224;SDS011;602;48.000;7.840;2022-11-14T08:02:18;5.20;;;2.13;;
1224;SDS011;602;48.000;7.840;2022-11-14T08:04:46;2.10;;;1.50;;
1224;SDS011;602;48.000;7.840;2022-11-14T08:07:13;1.33;;;1.23;;
1224;SDS011;602;48.000;7.840;2022-11-14T08:09:40;3.63;;;2.20;;
1224;SDS011;602;48.000;7.840;2022-11-14T08:12:07;4.03;;;2.47;;
1224;SDS011;602;48.000;7.840;2022-11-14T08:14:33;1.73;;;1.63;;
1224;SDS011;602;48.000;7.840;2022-11-14T08:17:00;2.30;;;1.40;;
1224;SDS011;602;48.000;7.840;2022-11-14T08:19:27;2.27;;;2.07;;
1224;SDS011;602;48.000;7.840;2022-11-14T08:21:55;4.00;;;1.90;;
1224;SDS011;602;48.000;7.840;2022-11-14T08:24:22;0.90;;;0.90;;
1224;SDS011;602;48.000;7.840;2022-11-14T08:30:02;2.77;;;2.40;;
1224;SDS011;602;48.000;7.840;2022-11-14T08:32:30;1.17;;;1.10;;
1224;SDS011;602;48.000;7.840;2022-11-14T08:34:57;3.47;;;1.77;;
1224;SDS011;602;48.000;7.840;2022-11-14T08:37:25;2.20;;;1.60;;
1224;SDS011;602;48.000;7.840;2022-11-14T08:39:52;2.70;;;1.50;;
1224;SDS011;602;48.000;7.840;2022-11-14T08:42:18;2.10;;;1.73;;
1224;SDS011;602;48.000;7.840;2022-11-14T08:44:45;1.83;;;1.70;;
1224;SDS011;602;48.000;7.840;2022-11-14T08:47:12;1.80;;;1.10;;
1224;SDS011;602;48.000;7.840;2022-11-14T08:49:39;0.97;;;0.93;;
1224;SDS011;602;48.000;7.840;2022-11-14T08:52:06;1.83;;;1.63;;
1224;SDS011;602;48.000;7.840;2022-11-14T08:54:34;1.60;;;1.50;;
1224;SDS011;602;48.000;7.840;2022-11-14T08:57:01;1.50;;;1.40;;
1224;SDS011;602;48.000;7.840;2022-11-14T08:59:29;1.67;;;1.57;;
1224;SDS011;602;48.000;7.840;2022-11-14T09:01:55;1.70;;;1.60;;
1224;SDS011;602;48.000;7.840;2022-11-14T09:04:22;1.87;;;1.77;;
1224;SDS011;602;48.000;7.840;2022-11-14T09:06:49;2.07;;;1.97;;
1224;SDS011;602;48.000;7.840;2022-11-14T09:09:16;1.90;;;1.40;;
1224;SDS011;602;48.000;7.840;2022-11-14T09:11:44;1.53;;;1.43;;
1224;SDS011;602;48.000;7.840;2022-11-14T09:14:11;1.90;;;1.80;;
1224;SDS011;602;48.000;7.840;2022-11-14T09:16:38;2.30;;;1.83;;
1224;SDS011;602;48.000;7.840;2022-11-14T09:19:05;3.30;;;2.10;;
1224;SDS011;602;48.000;7.840;2022-11-14T09:21:32;2.40;;;2.17;;
1224;SDS011;602;48.000;7.840;2022-11-14T09:23:59;2.70;;;2.50;;
1224;SDS011;602;48.000;7.840;2022-11-14T09:26:26;1.70;;;1.60;;
1224;SDS011;602;48.000;7.840;2022-11-14T09:28:54;7.30;;;1.77;;
1224;SDS011;602;48.000;7.840;2022-11-14T09:31:21;2.53;;;1.83;;
1224;SDS011;602;48.000;7.840;2022-11-14T09:33:47;2.50;;;2.30;;
1224;SDS011;602;48.000;7.840;2022-11-14T09:36:14;1.80;;;1.50;;
1224;SDS011;602;48.000;7.840;2022-11-14T09:38:42;5.30;;;2.93;;
1224;SDS011;602;48.000;7.840;2022-11-14T09:41:15;2.40;;;2.20;;
1224;SDS011;602;48.000;7.840;2022-11-14T09:44:05;3.30;;;2.80;;
1224;SDS011;602;48.000;7.840;2022-11-14T09:46:41;3.73;;;3.33;;
1224;SDS011;602;48.000;7.840;2022-11-14T09:49:14;3.33;;;2.80;;
1224;SDS011;602;48.000;7.840;2022-11-14T09:51:59;4.70;;;4.20;;
1224;SDS011;602;48.000;7.840;2022-11-14T09:54:33;12.33;;;4.50;;
1224;SDS011;602;48.000;7.840;2022-11-14T09:57:12;6.10;;;4.70;;
1224;SDS011;602;48.000;7.840;2022-11-14T09:59:42;6.00;;;4.50;;
1224;SDS011;602;48.000;7.840;2022-11-14T10:02:16;6.80;;;5.83;;
1224;SDS011;602;48.000;7.840;2022-11-14T10:04:55;4.70;;;3.77;;
1224;SDS011;602;48.000;7.840;2022-11-14T10:08:02;6.00;;;4.70;;
1224;SDS011;602;48.000;7.840;2022-11-14T10:10:43;11.80;;;6.60;;
1224;SDS011;602;48.000;7.840;2022-11-14T10:13:22;6.33;;;4.87;;
1224;SDS011;602;48.000;7.840;2022-11-14T10:16:03;5.67;;;3.27;;
1224;SDS011;602;48.000;7.840;2022-11-14T10:18:48;3.63;;;3.10;;
1224;SDS011;602;48.000;7.840;2022-11-14T10:21:28;5.80;;;4.00;;
1224;SDS011;602;48.000;7.840;2022-11-14T10:24:21;3.37;;;2.87;;
1224;SDS011;602;48.000;7.840;2022-11-14T10:26:58;9.27;;;3.57;;
1224;SDS011;602;48.000;7.840;2022-11-14T10:29:31;7.70;;;4.20;;
1224;SDS011;602;48.000;7.840;2022-11-14T10:32:21;9.70;;;3.40;;
1224;SDS011;602;48.000;7.840;2022-11-14T10:34:59;2.90;;;2.43;;
1224;SDS011;602;48.000;7.840;2022-11-14T10:37:30;4.00;;;3.53;;
1224;SDS011;602;48.000;7.840;2022-11-14T10:40:04;3.13;;;2.87;;
1224;SDS011;602;48.000;7.840;2022-11-14T10:42:41;2.60;;;2.40;;
1224;SDS011;602;48.000;7.840;2022-11-14T10:45:15;3.90;;;3.07;;
1224;SDS011;602;48.000;7.840;2022-11-14T10:47:50;3.90;;;3.60;;
1224;SDS011;602;48.000;7.840;2022-11-14T10:50:20;9.87;;;5.47;;
1224;SDS011;602;48.000;7.840;2022-11-14T10:52:53;5.00;;;3.50;;
1224;SDS011;602;48.000;7.840;2022-11-14T10:55:25;4.10;;;2.60;;
1224;SDS011;602;48.000;7.840;2022-11-14T10:57:52;3.53;;;3.23;;
1224;SDS011;602;48.000;7.840;2022-11-14T11:00:19;4.97;;;3.50;;
1224;SDS011;602;48.000;7.840;2022-11-14T11:02:51;9.80;;;3.80;;
1224;SDS011;602;48.000;7.840;2022-11-14T11:05:20;8.10;;;4.10;;
1224;SDS011;602;48.000;7.840;2022-11-14T11:07:48;5.93;;;3.50;;
1224;SDS011;602;48.000;7.840;2022-11-14T11:10:33;10.03;;;9.03;;
1224;SDS011;602;48.000;7.840;2022-11-14T11:13:29;4.63;;;4.03;;
1224;SDS011;602;48.000;7.840;2022-11-14T11:15:58;3.13;;;2.33;;
1224;SDS011;602;48.000;7.840;2022-11-14T11:18:29;3.13;;;2.23;;
1224;SDS011;602;48.000;7.840;2022-11-14T11:21:01;2.57;;;2.17;;
1224;SDS011;602;48.000;7.840;2022-11-14T11:23:30;4.10;;;2.30;;
1224;SDS011;602;48.000;7.840;2022-11-14T11:25:58;2.00;;;1.90;;
1224;SDS011;602;48.000;7.840;2022-11-14T11:28:30;2.93;;;2.23;;
1224;SDS011;602;48.000;7.840;2022-11-14T11:30:59;4.40;;;2.67;;
1224;SDS011;602;48.000;7.840;2022-11-14T11:33:29;7.07;;;2.63;;
1224;SDS011;602;48.000;7.840;2022-11-14T11:35:57;3.53;;;3.23;;
1224;SDS011;602;48.000;7.840;2022-11-14T11:38:27;3.90;;;3.50;;
1224;SDS011;602;48.000;7.840;2022-11-14T11:41:02;3.07;;;2.70;;
1224;SDS011;602;48.000;7.840;2022-11-14T11:43:37;3.67;;;2.20;;
1224;SDS011;602;48.000;7.840;2022-11-14T11:46:10;2.40;;;2.20;;
1224;SDS011;602;48.000;7.840;2022-11-14T11:48:42;3.20;;;1.80;;
1224;SDS011;602;48.000;7.840;2022-11-14T11:51:14;2.40;;;2.07;;
1224;SDS011;602;48.000;7.840;2022-11-14T11:53:45;4.23;;;2.83;;
1224;SDS011;602;48.000;7.840;2022-11-14T11:56:16;2.50;;;2.30;;
1224;SDS011;602;48.000;7.840;2022-11-14T11:58:47;3.67;;;3.23;;
1224;SDS011;602;48.000;7.840;2022-11-14T12:01:16;3.80;;;3.10;;
1224;SDS011;602;48.000;7.840;2022-11-14T12:03:45;3.90;;;2.73;;
1224;SDS011;602;48.000;7.840;2022-11-14T12:06:14;3.20;;;2.90;;
1224;SDS011;602;48.000;7.840;2022-11-14T12:08:52;2.60;;;2.30;;
1224;SDS011;602;48.000;7.840;2022-11-14T12:11:33;3.37;;;2.10;;
1224;SDS011;602;48.000;7.840;2022-11-14T12:14:13;2.93;;;2.63;;
1224;SDS011;602;48.000;7.840;2022-11-14T12:16:59;3.13;;;1.93;;
1224;SDS011;602;48.000;7.840;2022-11-14T12:19:55;1.97;;;1.80;;
1224;SDS011;602;48.000;7.840;2022-11-14T12:25:58;4.00;;;3.03;;
1224;SDS011;602;48.000;7.840;2022-11-14T12:28:39;4.33;;;2.20;;
1224;SDS011;602;48.000;7.840;2022-11-14T12:31:23;3.17;;;2.67;;
1224;SDS011;602;48.000;7.840;2022-11-14T12:33:53;3.00;;;2.70;;
1224;SDS011;602;48.000;7.840;2022-11-14T12:36:27;2.30;;;2.10;;
1224;SDS011;602;48.000;7.840;2022-11-14T12:38:56;3.00;;;2.67;;
1224;SDS011;602;48.000;7.840;2022-11-14T12:41:25;2.90;;;2.70;;
1224;SDS011;602;48.000;7.840;2022-11-14T12:44:01;8.53;;;2.57;;
1224;SDS011;602;48.000;7.840;2022-11-14T13:01:19;13.23;;;6.80;;
1224;SDS011;602;48.000;7.840;2022-11-14T13:04:04;7.83;;;3.87;;
1224;SDS011;602;48.000;7.840;2022-11-14T13:06:44;2.70;;;2.33;;
1224;SDS011;602;48.000;7.840;2022-11-14T13:09:26;4.93;;;3.30;;
1224;SDS011;602;48.000;7.840;2022-11-14T13:11:58;4.10;;;2.80;;
1224;SDS011;602;48.000;7.840;2022-11-14T13:15:10;2.93;;;2.60;;
1224;SDS011;602;48.000;7.840;2022-11-14T13:18:11;5.70;;;3.20;;
1224;SDS011;602;48.000;7.840;2022-11-14T13:21:02;5.70;;;2.73;;
1224;SDS011;602;48.000;7.840;2022-11-14T13:23:57;3.83;;;2.97;;
1224;SDS011;602;48.000;7.840;2022-11-14T13:26:38;5.50;;;4.87;;
1224;SDS011;602;48.000;7.840;2022-11-14T13:29:06;3.70;;;3.13;;
1224;SDS011;602;48.000;7.840;2022-11-14T13:31:53;5.03;;;3.07;;
1224;SDS011;602;48.000;7.840;2022-11-14T13:34:28;2.60;;;2.40;;
1224;SDS011;602;48.000;7.840;2022-11-14T13:37:03;2.13;;;1.93;;
1224;SDS011;602;48.000;7.840;2022-11-14T13:39:44;4.17;;;2.70;;
1224;SDS011;602;48.000;7.840;2022-11-14T13:42:36;2.77;;;2.50;;
1224;SDS011;602;48.000;7.840;2022-11-14T13:45:17;2.63;;;2.23;;
1224;SDS011;602;48.000;7.840;2022-11-14T13:48:13;4.97;;;3.83;;
1224;SDS011;602;48.000;7.840;2022-11-14T13:50:59;2.97;;;2.77;;
1224;SDS011;602;48.000;7.840;2022-11-14T13:53:29;4.30;;;3.90;;
1224;SDS011;602;48.000;7.840;2022-11-14T13:56:03;1.73;;;1.63;;
1224;SDS011;602;48.000;7.840;2022-11-14T13:58:55;2.83;;;2.57;;
1224;SDS011;602;48.000;7.840;2022-11-14T14:01:41;4.30;;;2.53;;
1224;SDS011;602;48.000;7.840;2022-11-14T14:04:20;4.17;;;2.97;;
1224;SDS011;602;48.000;7.840;2022-11-14T14:07:01;2.53;;;2.07;;
1224;SDS011;602;48.000;7.840;2022-11-14T14:09:37;3.50;;;2.40;;
1224;SDS011;602;48.000;7.840;2022-11-14T14:12:20;3.40;;;2.37;;
1224;SDS011;602;48.000;7.840;2022-11-14T14:15:03;2.40;;;2.07;;
1224;SDS011;602;48.000;7.840;2022-11-14T14:17:39;1.53;;;1.10;;
1224;SDS011;602;48.000;7.840;2022-11-14T14:20:19;1.63;;;1.53;;
1224;SDS011;602;48.000;7.840;2022-11-14T14:22:56;1.90;;;1.20;;
1224;SDS011;602;48.000;7.840;2022-11-14T14:25:33;0.70;;;0.70;;
1224;SDS011;602;48.000;7.840;2022-11-14T14:28:09;1.30;;;1.20;;
1224;SDS011;602;48.000;7.840;2022-11-14T14:31:02;1.73;;;1.40;;
1224;SDS011;602;48.000;7.840;2022-11-14T14:33:38;2.40;;;1.60;;
1224;SDS011;602;48.000;7.840;2022-11-14T14:36:15;1.13;;;1.07;;
1224;SDS011;602;48.000;7.840;2022-11-14T14:38:45;0.90;;;0.90;;
1224;SDS011;602;48.000;7.840;2022-11-14T14:41:16;1.50;;;1.20;;
1224;SDS011;602;48.000;7.840;2022-11-14T14:43:49;1.90;;;1.30;;
1224;SDS011;602;48.000;7.840;2022-11-14T14:46:28;1.50;;;1.20;;
1224;SDS011;602;48.000;7.840;2022-11-14T14:48:56;1.40;;;1.20;;
1224;SDS011;602;48.000;7.840;2022-11-14T14:51:29;1.37;;;1.00;;
1224;SDS011;602;48.000;7.840;2022-11-14T14:53:58;0.90;;;0.70;;
1224;SDS011;602;48.000;7.840;2022-11-14T14:56:25;1.27;;;1.17;;
1224;SDS011;602;48.000;7.840;2022-11-14T14:58:53;0.90;;;0.87;;
1224;SDS011;602;48.000;7.840;2022-11-14T15:01:20;0.87;;;0.83;;
1224;SDS011;602;48.000;7.840;2022-11-14T15:03:51;1.17;;;0.90;;
1224;SDS011;602;48.000;7.840;2022-11-14T15:06:25;1.40;;;0.80;;
1224;SDS011;602;48.000;7.840;2022-11-14T15:08:57;1.80;;;1.13;;
1224;SDS011;602;48.000;7.840;2022-11-14T15:11:26;3.60;;;1.80;;
1224;SDS011;602;48.000;7.840;2022-11-14T15:13:54;1.97;;;1.40;;
1224;SDS011;602;48.000;7.840;2022-11-14T15:16:23;1.60;;;1.50;;
1224;SDS011;602;48.000;7.840;2022-11-14T15:18:52;1.30;;;1.20;;
1224;SDS011;602;48.000;7.840;2022-11-14T15:21:23;1.00;;;0.90;;
1224;SDS011;602;48.000;7.840;2022-11-14T15:23:58;2.07;;;1.50;;
1224;SDS011;602;48.000;7.840;2022-11-14T15:26:27;1.03;;;0.93;;
1224;SDS011;602;48.000;7.840;2022-11-14T15:29:06;2.07;;;1.33;;
1224;SDS011;602;48.000;7.840;2022-11-14T15:31:46;2.53;;;1.40;;
1224;SDS011;602;48.000;7.840;2022-11-14T15:34:21;1.47;;;1.37;;
1224;SDS011;602;48.000;7.840;2022-11-14T15:39:48;1.37;;;1.13;;
1224;SDS011;602;48.000;7.840;2022-11-14T15:42:17;1.30;;;1.20;;
1224;SDS011;602;48.000;7.840;2022-11-14T15:44:45;1.17;;;1.07;;
1224;SDS011;602;48.000;7.840;2022-11-14T15:47:17;2.57;;;1.70;;
1224;SDS011;602;48.000;7.840;2022-11-14T15:49:55;1.33;;;1.07;;
1224;SDS011;602;48.000;7.840;2022-11-14T15:52:26;1.37;;;1.07;;
1224;SDS011;602;48.000;7.840;2022-11-14T15:55:01;3.90;;;1.60;;
1224;SDS011;602;48.000;7.840;2022-11-14T15:57:44;0.93;;;0.93;;
1224;SDS011;602;48.000;7.840;2022-11-14T16:01:21;1.07;;;0.83;;
1224;SDS011;602;48.000;7.840;2022-11-14T16:04:27;1.30;;;0.80;;
1224;SDS011;602;48.000;7.840;2022-11-14T16:24:24;0.97;;;0.97;;
1224;SDS011;602;48.000;7.840;2022-11-14T16:26:51;0.93;;;0.93;;
1224;SDS011;602;48.000;7.840;2022-11-14T16:29:17;2.20;;;1.10;;
1224;SDS011;602;48.000;7.840;2022-11-14T16:31:44;3.30;;;1.77;;
1224;SDS011;602;48.000;7.840;2022-11-14T16:34:14;1.50;;;1.40;;